createdAt,value
2023-03-23T00:00:19.192Z,13.98
2023-03-23T00:01:19.094Z,13.95
2023-03-23T00:03:47.100Z,13.89
2023-03-23T00:04:47.135Z,13.84
2023-03-23T00:05:47.096Z,13.91
2023-03-23T00:06:47.093Z,13.92
2023-03-23T00:07:47.084Z,13.95
2023-03-23T00:08:47.063Z,14.01
2023-03-23T00:09:47.067Z,13.92
2023-03-23T00:10:47.048Z,13.92
2023-03-23T00:11:47.032Z,13.96
2023-03-23T00:12:47.020Z,13.92
2023-03-23T00:13:47.015Z,13.95
2023-03-23T00:14:47.012Z,14.02
2023-03-23T00:15:46.992Z,13.96
2023-03-23T00:16:46.976Z,13.91
2023-03-23T00:17:46.978Z,13.95
2023-03-23T00:18:46.978Z,13.88
2023-03-23T00:19:46.966Z,14.01
2023-03-23T00:20:46.941Z,13.96
2023-03-23T00:21:46.934Z,13.94
2023-03-23T00:22:46.923Z,14.02
2023-03-23T00:23:46.911Z,14.01
2023-03-23T00:24:46.949Z,13.98
2023-03-23T00:25:46.897Z,14.01
2023-03-23T00:26:48.069Z,13.99
2023-03-23T00:27:46.875Z,14.02
2023-03-23T00:28:46.864Z,14.01
2023-03-23T00:29:46.854Z,13.94
2023-03-23T00:30:46.862Z,13.89
2023-03-23T00:31:46.831Z,14.01
2023-03-23T00:32:46.815Z,13.89
2023-03-23T00:33:46.821Z,13.91
2023-03-23T00:34:46.804Z,14.07
2023-03-23T00:35:46.836Z,14.09
2023-03-23T00:36:46.780Z,14.07
2023-03-23T00:37:46.775Z,14.01
2023-03-23T00:38:46.759Z,13.99
2023-03-23T00:39:46.757Z,14.02
2023-03-23T00:40:46.754Z,14.06
2023-03-23T00:41:46.729Z,14.02
2023-03-23T00:42:46.728Z,14.01
2023-03-23T00:43:46.720Z,14.06
2023-03-23T00:44:46.697Z,14.12
2023-03-23T00:45:46.702Z,14.04
2023-03-23T00:46:46.674Z,14.09
2023-03-23T00:47:46.671Z,14.10
2023-03-23T00:48:46.659Z,13.99
2023-03-23T00:49:46.652Z,14.04
2023-03-23T00:50:46.646Z,14.02
2023-03-23T00:51:46.652Z,14.02
2023-03-23T00:52:46.616Z,14.02
2023-03-23T00:53:46.619Z,14.13
2023-03-23T00:54:46.597Z,14.16
2023-03-23T00:55:46.603Z,13.99
2023-03-23T00:56:46.578Z,14.16
2023-03-23T00:57:46.567Z,14.12
2023-03-23T00:58:46.560Z,14.14
2023-03-23T00:59:46.549Z,14.07
2023-03-23T01:00:46.561Z,14.09
2023-03-23T01:01:46.532Z,13.99
2023-03-23T01:02:46.526Z,14.07
2023-03-23T01:03:46.508Z,13.95
2023-03-23T01:04:46.509Z,14.02
2023-03-23T01:05:46.501Z,14.13
2023-03-23T01:06:46.478Z,14.10
2023-03-23T01:07:46.476Z,14.04
2023-03-23T01:08:46.456Z,14.13
2023-03-23T01:09:46.455Z,14.07
2023-03-23T01:10:46.459Z,14.02
2023-03-23T01:11:46.467Z,13.98
2023-03-23T01:12:47.595Z,14.01
2023-03-23T01:13:47.575Z,14.10
2023-03-23T01:14:47.537Z,14.07
2023-03-23T01:15:47.559Z,14.12
2023-03-23T01:16:47.530Z,14.13
2023-03-23T01:17:47.513Z,14.06
2023-03-23T01:18:47.493Z,14.06
2023-03-23T01:19:47.537Z,14.14
2023-03-23T01:20:47.511Z,14.09
2023-03-23T01:21:47.483Z,14.06
2023-03-23T01:22:47.504Z,14.07
2023-03-23T01:23:47.460Z,14.14
2023-03-23T01:24:47.446Z,14.04
2023-03-23T01:25:47.457Z,14.10
2023-03-23T01:26:47.441Z,14.14
2023-03-23T01:27:47.422Z,14.13
2023-03-23T01:28:47.430Z,14.12
2023-03-23T01:29:47.393Z,13.99
2023-03-23T01:30:47.401Z,14.12
2023-03-23T01:31:47.396Z,14.21
2023-03-23T01:32:47.384Z,14.13
2023-03-23T01:33:47.392Z,14.10
2023-03-23T01:34:47.377Z,14.14
2023-03-23T01:35:47.390Z,14.17
2023-03-23T01:36:47.341Z,14.09
2023-03-23T01:37:47.382Z,14.14
2023-03-23T01:38:47.366Z,14.20
2023-03-23T01:39:47.337Z,14.10
2023-03-23T01:40:47.350Z,14.10
2023-03-23T01:41:47.357Z,14.07
2023-03-23T01:42:47.300Z,14.09
2023-03-23T01:43:47.302Z,14.04
2023-03-23T01:44:47.305Z,14.02
2023-03-23T01:45:47.300Z,14.13
2023-03-23T01:46:47.268Z,14.01
2023-03-23T01:47:47.253Z,14.07
2023-03-23T01:48:47.252Z,13.91
2023-03-23T01:49:47.242Z,13.99
2023-03-23T01:50:47.268Z,13.87
2023-03-23T01:51:47.280Z,13.80
2023-03-23T01:52:47.240Z,13.76
2023-03-23T01:53:47.186Z,13.88
2023-03-23T01:54:47.205Z,13.91
2023-03-23T01:55:47.207Z,13.84
2023-03-23T01:56:47.176Z,13.70
2023-03-23T01:57:47.213Z,13.70
2023-03-23T01:58:47.134Z,13.69
2023-03-23T01:59:47.195Z,13.67
2023-03-23T02:00:47.181Z,13.65
2023-03-23T02:01:47.172Z,13.76
2023-03-23T02:02:47.116Z,13.74
2023-03-23T02:03:47.102Z,13.74
2023-03-23T02:04:47.096Z,13.83
2023-03-23T02:05:47.117Z,13.76
2023-03-23T02:06:47.076Z,13.67
2023-03-23T02:07:47.110Z,13.73
2023-03-23T02:08:47.100Z,13.61
2023-03-23T02:09:47.030Z,13.70
2023-03-23T02:10:47.018Z,13.70
2023-03-23T02:11:47.051Z,13.58
2023-03-23T02:12:47.037Z,13.54
2023-03-23T02:13:47.012Z,13.47
2023-03-23T02:14:47.021Z,13.51
2023-03-23T02:15:47.039Z,13.40
2023-03-23T02:16:46.974Z,13.43
2023-03-23T02:17:47.005Z,13.32
2023-03-23T02:18:46.972Z,13.20
2023-03-23T02:19:46.974Z,13.21
2023-03-23T02:20:46.961Z,13.14
2023-03-23T02:21:46.909Z,13.21
2023-03-23T02:22:46.928Z,13.02
2023-03-23T02:23:46.965Z,13.04
2023-03-23T02:24:46.941Z,13.03
2023-03-23T02:25:46.946Z,12.96
2023-03-23T02:26:46.888Z,12.99
2023-03-23T02:27:46.930Z,12.93
2023-03-23T02:28:46.883Z,12.95
2023-03-23T02:29:46.845Z,12.93
2023-03-23T02:30:46.888Z,12.88
2023-03-23T02:31:46.841Z,12.92
2023-03-23T02:32:46.832Z,12.75
2023-03-23T02:33:46.821Z,12.79
2023-03-23T02:34:46.827Z,12.79
2023-03-23T02:35:46.806Z,12.77
2023-03-23T02:36:46.800Z,12.75
2023-03-23T02:37:46.777Z,12.78
2023-03-23T02:38:46.749Z,12.66
2023-03-23T02:39:46.743Z,12.71
2023-03-23T02:40:46.748Z,12.57
2023-03-23T02:41:46.762Z,12.71
2023-03-23T02:42:46.731Z,12.63
2023-03-23T02:43:46.695Z,12.56
2023-03-23T02:44:46.689Z,12.66
2023-03-23T02:45:46.692Z,12.56
2023-03-23T02:46:46.675Z,12.57
2023-03-23T02:47:46.711Z,12.56
2023-03-23T02:48:46.653Z,12.46
2023-03-23T02:49:46.675Z,12.63
2023-03-23T02:50:46.670Z,12.42
2023-03-23T02:51:46.667Z,12.38
2023-03-23T02:52:46.615Z,12.27
2023-03-23T02:53:46.661Z,12.37
2023-03-23T02:54:46.636Z,12.39
2023-03-23T02:55:46.602Z,12.33
2023-03-23T02:56:46.611Z,12.20
2023-03-23T02:57:46.604Z,12.31
2023-03-23T02:58:46.574Z,12.24
2023-03-23T02:59:46.576Z,12.19
2023-03-23T03:00:46.522Z,12.12
2023-03-23T03:01:46.538Z,12.15
2023-03-23T03:02:46.561Z,12.19
2023-03-23T03:03:46.533Z,12.15
2023-03-23T03:04:46.511Z,12.06
2023-03-23T03:05:46.525Z,12.08
2023-03-23T03:06:46.495Z,11.99
2023-03-23T03:07:46.460Z,12.04
2023-03-23T03:08:46.482Z,11.94
2023-03-23T03:09:46.481Z,11.90
2023-03-23T03:10:46.445Z,11.97
2023-03-23T03:11:46.455Z,12.02
2023-03-23T03:12:46.413Z,12.02
2023-03-23T03:13:46.446Z,12.13
2023-03-23T03:14:46.466Z,12.06
2023-03-23T03:15:46.424Z,11.99
2023-03-23T03:16:46.382Z,12.04
2023-03-23T03:17:46.393Z,12.08
2023-03-23T03:18:46.368Z,11.97
2023-03-23T03:19:46.356Z,12.05
2023-03-23T03:20:46.379Z,11.97
2023-03-23T03:21:46.349Z,12.01
2023-03-23T03:22:46.362Z,12.08
2023-03-23T03:23:46.330Z,12.06
2023-03-23T03:24:46.345Z,12.01
2023-03-23T03:25:46.312Z,12.08
2023-03-23T03:26:46.346Z,12.02
2023-03-23T03:27:46.340Z,12.06
2023-03-23T03:28:46.283Z,12.13
2023-03-23T03:29:46.262Z,12.09
2023-03-23T03:30:46.276Z,12.13
2023-03-23T03:31:46.249Z,12.09
2023-03-23T03:32:46.327Z,12.09
2023-03-23T03:33:46.282Z,12.06
2023-03-23T03:34:46.240Z,12.06
2023-03-23T03:35:46.261Z,12.08
2023-03-23T03:36:46.217Z,12.12
2023-03-23T03:37:46.223Z,12.06
2023-03-23T03:38:46.174Z,12.11
2023-03-23T03:39:46.183Z,12.08
2023-03-23T03:40:46.201Z,12.08
2023-03-23T03:41:46.216Z,12.11
2023-03-23T03:42:46.184Z,12.16
2023-03-23T03:43:46.159Z,12.02
2023-03-23T03:44:46.146Z,12.09
2023-03-23T03:45:46.133Z,12.05
2023-03-23T03:46:46.157Z,12.02
2023-03-23T03:47:46.151Z,12.02
2023-03-23T03:48:46.157Z,12.02
2023-03-23T03:49:46.104Z,11.97
2023-03-23T03:50:46.087Z,11.97
2023-03-23T03:51:46.106Z,12.04
2023-03-23T03:52:46.088Z,11.99
2023-03-23T03:53:46.084Z,11.86
2023-03-23T03:54:46.078Z,12.09
2023-03-23T03:55:46.020Z,12.08
2023-03-23T03:56:46.009Z,12.15
2023-03-23T03:57:46.036Z,12.12
2023-03-23T03:58:45.993Z,12.09
2023-03-23T03:59:46.970Z,12.09
2023-03-23T04:00:45.988Z,12.12
2023-03-23T04:01:45.966Z,12.13
2023-03-23T04:02:45.979Z,12.15
2023-03-23T04:03:45.940Z,12.04
2023-03-23T04:04:45.931Z,11.99
2023-03-23T04:05:45.931Z,11.77
2023-03-23T04:06:46.928Z,11.89
2023-03-23T04:07:45.905Z,11.75
2023-03-23T04:08:45.921Z,11.68
2023-03-23T04:09:46.880Z,11.65
2023-03-23T04:10:45.865Z,11.68
2023-03-23T04:11:45.874Z,11.64
2023-03-23T04:12:45.891Z,11.70
2023-03-23T04:13:45.915Z,11.61
2023-03-23T04:14:45.847Z,11.64
2023-03-23T04:15:45.853Z,11.50
2023-03-23T04:16:46.887Z,11.44
2023-03-23T04:17:46.837Z,11.49
2023-03-23T04:18:45.836Z,11.38
2023-03-23T04:19:46.805Z,11.54
2023-03-23T04:20:46.846Z,11.41
2023-03-23T04:21:45.799Z,11.39
2023-03-23T04:22:45.801Z,11.38
2023-03-23T04:23:45.789Z,11.47
2023-03-23T04:24:56.000Z,11.46
2023-03-23T04:25:46.777Z,11.34
2023-03-23T04:26:45.741Z,11.27
2023-03-23T04:27:45.796Z,11.32
2023-03-23T04:28:45.736Z,11.35
2023-03-23T04:29:45.705Z,11.39
2023-03-23T04:30:45.724Z,11.27
2023-03-23T04:31:45.721Z,11.31
2023-03-23T04:32:45.732Z,11.25
2023-03-23T04:33:59.593Z,11.27
2023-03-23T04:34:46.678Z,11.27
2023-03-23T04:35:45.660Z,11.31
2023-03-23T04:36:57.128Z,11.29
2023-03-23T04:37:46.665Z,11.31
2023-03-23T04:38:45.702Z,11.25
2023-03-23T04:39:45.638Z,11.32
2023-03-23T04:40:45.612Z,11.24
2023-03-23T04:41:45.596Z,11.16
2023-03-23T04:42:45.627Z,11.24
2023-03-23T04:43:45.566Z,11.21
2023-03-23T04:44:45.584Z,11.14
2023-03-23T04:45:45.613Z,11.21
2023-03-23T04:46:45.556Z,11.14
2023-03-23T04:47:45.553Z,11.11
2023-03-23T04:48:45.524Z,11.07
2023-03-23T04:49:45.575Z,11.11
2023-03-23T04:50:45.535Z,11.03
2023-03-23T04:51:45.492Z,10.95
2023-03-23T04:52:45.479Z,11.07
2023-03-23T04:53:45.536Z,11.06
2023-03-23T04:54:45.483Z,10.99
2023-03-23T04:55:45.466Z,10.94
2023-03-23T04:56:45.474Z,10.81
2023-03-23T04:57:45.478Z,10.86
2023-03-23T04:58:45.441Z,10.89
2023-03-23T04:59:45.453Z,10.95
2023-03-23T05:00:45.415Z,10.95
2023-03-23T05:01:45.438Z,10.89
2023-03-23T05:02:45.424Z,10.92
2023-03-23T05:03:45.393Z,10.98
2023-03-23T05:04:45.389Z,10.99
2023-03-23T05:05:45.369Z,10.95
2023-03-23T05:06:45.347Z,10.91
2023-03-23T05:07:45.465Z,10.94
2023-03-23T05:08:45.319Z,11.03
2023-03-23T05:09:45.318Z,11.06
2023-03-23T05:10:45.335Z,10.95
2023-03-23T05:11:45.313Z,10.98
2023-03-23T05:12:45.327Z,10.95
2023-03-23T05:13:45.301Z,11.02
2023-03-23T05:14:45.321Z,11.03
2023-03-23T05:15:45.266Z,11.01
2023-03-23T05:16:45.225Z,11.03
2023-03-23T05:17:45.270Z,11.13
2023-03-23T05:18:45.284Z,10.99
2023-03-23T05:19:45.237Z,10.99
2023-03-23T05:20:45.239Z,11.06
2023-03-23T05:21:45.268Z,11.01
2023-03-23T05:22:45.260Z,10.99
2023-03-23T05:23:45.192Z,11.07
2023-03-23T05:24:45.224Z,11.03
2023-03-23T05:25:45.204Z,11.01
2023-03-23T05:26:45.205Z,10.98
2023-03-23T05:27:45.202Z,11.11
2023-03-23T05:28:45.204Z,10.96
2023-03-23T05:29:45.120Z,10.99
2023-03-23T05:30:45.188Z,11.02
2023-03-23T05:31:45.194Z,11.10
2023-03-23T05:32:45.115Z,11.03
2023-03-23T05:33:45.123Z,10.99
2023-03-23T05:34:45.060Z,11.02
2023-03-23T05:35:45.313Z,10.98
2023-03-23T05:36:45.108Z,11.10
2023-03-23T05:37:45.048Z,11.14
2023-03-23T05:38:45.089Z,11.10
2023-03-23T05:39:45.044Z,10.98
2023-03-23T05:40:45.018Z,11.02
2023-03-23T05:41:46.667Z,10.95
2023-03-23T05:42:45.987Z,10.99
2023-03-23T05:43:45.014Z,11.01
2023-03-23T05:44:44.981Z,10.89
2023-03-23T05:45:44.965Z,10.86
2023-03-23T05:46:44.970Z,10.94
2023-03-23T05:47:44.947Z,10.95
2023-03-23T05:48:44.959Z,10.92
2023-03-23T05:49:44.921Z,10.94
2023-03-23T05:50:44.947Z,10.91
2023-03-23T05:51:44.915Z,10.84
2023-03-23T05:52:44.933Z,10.88
2023-03-23T05:53:44.946Z,10.92
2023-03-23T05:54:44.900Z,10.95
2023-03-23T05:55:44.879Z,10.95
2023-03-23T05:56:44.878Z,10.94
2023-03-23T05:57:44.936Z,10.96
2023-03-23T05:58:44.841Z,10.96
2023-03-23T05:59:44.857Z,10.99
2023-03-23T06:00:44.820Z,11.03
2023-03-23T06:01:44.844Z,11.02
2023-03-23T06:02:45.812Z,10.96
2023-03-23T06:03:44.850Z,11.03
2023-03-23T06:04:44.776Z,11.10
2023-03-23T06:05:44.802Z,11.07
2023-03-23T06:06:44.763Z,11.07
2023-03-23T06:07:44.760Z,11.10
2023-03-23T06:08:44.802Z,11.09
2023-03-23T06:09:44.736Z,10.99
2023-03-23T06:10:44.727Z,11.06
2023-03-23T06:11:44.730Z,10.99
2023-03-23T06:12:44.746Z,11.01
2023-03-23T06:13:44.759Z,11.06
2023-03-23T06:14:44.740Z,11.06
2023-03-23T06:15:44.682Z,11.02
2023-03-23T06:16:44.687Z,10.96
2023-03-23T06:17:44.678Z,10.96
2023-03-23T06:18:44.684Z,11.09
2023-03-23T06:19:44.638Z,11.06
2023-03-23T06:20:45.822Z,11.06
2023-03-23T06:21:44.602Z,11.01
2023-03-23T06:22:44.590Z,11.09
2023-03-23T06:23:44.654Z,11.03
2023-03-23T06:24:44.572Z,11.11
2023-03-23T06:25:44.595Z,11.03
2023-03-23T06:26:44.620Z,11.01
2023-03-23T06:27:46.501Z,11.06
2023-03-23T06:28:46.645Z,11.13
2023-03-23T06:29:44.552Z,11.17
2023-03-23T06:30:44.513Z,11.16
2023-03-23T06:31:44.481Z,11.16
2023-03-23T06:32:44.468Z,11.11
2023-03-23T06:33:44.484Z,11.13
2023-03-23T06:34:44.464Z,11.20
2023-03-23T06:35:44.713Z,11.14
2023-03-23T06:36:44.480Z,11.17
2023-03-23T06:37:44.412Z,11.27
2023-03-23T06:38:44.425Z,11.35
2023-03-23T06:39:44.373Z,11.27
2023-03-23T06:40:44.393Z,11.17
2023-03-23T06:41:44.351Z,11.21
2023-03-23T06:42:44.335Z,11.31
2023-03-23T06:43:44.378Z,11.34
2023-03-23T06:44:44.336Z,11.25
2023-03-23T06:45:44.414Z,11.31
2023-03-23T06:46:44.331Z,11.19
2023-03-23T06:47:44.322Z,11.16
2023-03-23T06:48:44.323Z,11.25
2023-03-23T06:49:44.385Z,11.21
2023-03-23T06:50:44.310Z,11.19
2023-03-23T06:51:44.321Z,11.27
2023-03-23T06:52:44.293Z,11.32
2023-03-23T06:53:44.289Z,11.31
2023-03-23T06:54:44.260Z,11.32
2023-03-23T06:55:44.241Z,11.38
2023-03-23T06:56:44.260Z,11.47
2023-03-23T06:57:44.229Z,11.54
2023-03-23T06:58:44.242Z,11.54
2023-03-23T06:59:44.198Z,11.59
2023-03-23T07:00:44.198Z,11.53
2023-03-23T07:01:44.188Z,11.57
2023-03-23T07:02:44.174Z,11.56
2023-03-23T07:03:44.188Z,11.53
2023-03-23T07:04:44.219Z,11.57
2023-03-23T07:05:44.175Z,11.61
2023-03-23T07:06:44.167Z,11.46
2023-03-23T07:07:44.145Z,11.61
2023-03-23T07:08:44.129Z,11.64
2023-03-23T07:09:44.098Z,11.64
2023-03-23T07:10:44.122Z,11.78
2023-03-23T07:11:44.124Z,11.78
2023-03-23T07:12:44.074Z,11.85
2023-03-23T07:13:44.130Z,11.99
2023-03-23T07:14:44.076Z,12.02
2023-03-23T07:15:44.171Z,12.19
2023-03-23T07:16:44.192Z,12.37
2023-03-23T07:17:44.066Z,12.29
2023-03-23T07:18:44.038Z,12.45
2023-03-23T07:19:44.107Z,12.52
2023-03-23T07:20:44.024Z,12.57
2023-03-23T07:21:43.984Z,12.62
2023-03-23T07:22:44.020Z,12.54
2023-03-23T07:23:44.023Z,12.60
2023-03-23T07:24:44.196Z,12.60
2023-03-23T07:25:44.100Z,12.69
2023-03-23T07:26:44.000Z,12.52
2023-03-23T07:27:44.007Z,12.64
2023-03-23T07:28:43.981Z,12.51
2023-03-23T07:29:43.979Z,12.54
2023-03-23T07:30:43.873Z,12.49
2023-03-23T07:31:44.959Z,12.57
2023-03-23T07:32:43.963Z,12.63
2023-03-23T07:33:43.970Z,12.67
2023-03-23T07:34:43.855Z,12.64
2023-03-23T07:35:44.101Z,12.69
2023-03-23T07:36:43.957Z,12.62
2023-03-23T07:37:44.095Z,12.63
2023-03-23T07:38:43.830Z,12.56
2023-03-23T07:39:43.848Z,12.54
2023-03-23T07:40:43.871Z,12.63
2023-03-23T07:41:43.881Z,12.59
2023-03-23T07:42:43.763Z,12.69
2023-03-23T07:43:43.803Z,12.74
2023-03-23T07:44:44.485Z,12.85
2023-03-23T07:45:43.973Z,12.85
2023-03-23T07:46:43.770Z,12.92
2023-03-23T07:47:43.758Z,12.99
2023-03-23T07:48:43.769Z,13.06
2023-03-23T07:49:43.781Z,13.07
2023-03-23T07:50:43.754Z,13.07
2023-03-23T07:51:43.716Z,13.14
2023-03-23T07:52:43.693Z,13.17
2023-03-23T07:53:43.680Z,13.02
2023-03-23T07:54:43.677Z,13.00
2023-03-23T07:55:44.088Z,12.77
2023-03-23T07:56:43.653Z,12.81
2023-03-23T07:57:43.633Z,12.67
2023-03-23T07:58:43.668Z,12.69
2023-03-23T07:59:43.616Z,12.66
2023-03-23T08:00:43.863Z,12.63
2023-03-23T08:01:43.557Z,12.63
2023-03-23T08:02:43.551Z,12.69
2023-03-23T08:03:43.572Z,12.70
2023-03-23T08:04:43.609Z,12.67
2023-03-23T08:05:43.891Z,12.67
2023-03-23T08:06:44.505Z,12.77
2023-03-23T08:07:43.545Z,12.81
2023-03-23T08:08:43.536Z,12.87
2023-03-23T08:09:43.546Z,12.75
2023-03-23T08:10:43.613Z,12.75
2023-03-23T08:11:43.587Z,12.92
2023-03-23T08:12:43.527Z,12.87
2023-03-23T08:13:43.611Z,12.84
2023-03-23T08:14:43.496Z,13.03
2023-03-23T08:15:43.771Z,13.02
2023-03-23T08:16:43.609Z,13.00
2023-03-23T08:17:43.503Z,13.07
2023-03-23T08:18:43.451Z,12.97
2023-03-23T08:19:43.522Z,13.06
2023-03-23T08:20:43.500Z,13.09
2023-03-23T08:21:43.475Z,13.12
2023-03-23T08:22:51.404Z,13.11
2023-03-23T08:23:45.400Z,13.21
2023-03-23T08:24:43.395Z,13.49
2023-03-23T08:25:43.738Z,13.37
2023-03-23T08:26:43.425Z,13.29
2023-03-23T08:27:43.355Z,13.37
2023-03-23T08:28:43.409Z,13.27
2023-03-23T08:29:43.328Z,13.32
2023-03-23T08:30:43.364Z,13.29
2023-03-23T08:31:43.325Z,13.36
2023-03-23T08:32:43.285Z,13.20
2023-03-23T08:33:43.375Z,13.41
2023-03-23T08:34:43.303Z,13.43
2023-03-23T08:35:43.453Z,13.52
2023-03-23T08:36:43.330Z,13.38
2023-03-23T08:37:43.294Z,13.51
2023-03-23T08:38:43.288Z,13.30
2023-03-23T08:39:43.321Z,13.49
2023-03-23T08:40:43.195Z,13.46
2023-03-23T08:41:44.236Z,13.44
2023-03-23T08:42:43.827Z,13.49
2023-03-23T08:43:44.315Z,13.47
2023-03-23T08:44:43.299Z,13.49
2023-03-23T08:47:40.883Z,13.49
2023-03-23T08:48:41.682Z,13.47
2023-03-23T08:49:41.644Z,13.54
2023-03-23T08:50:40.858Z,13.47
2023-03-23T08:52:14.973Z,13.46
2023-03-23T08:52:41.964Z,13.41
2023-03-23T08:53:40.865Z,13.37
2023-03-23T08:54:40.902Z,13.29
2023-03-23T08:55:41.012Z,13.40
2023-03-23T08:56:40.828Z,13.43
2023-03-23T08:57:40.831Z,13.52
2023-03-23T08:58:40.796Z,13.52
2023-03-23T08:59:40.815Z,13.61
2023-03-23T09:01:18.142Z,13.43
2023-03-23T09:01:41.497Z,13.43
2023-03-23T09:02:40.937Z,13.38
2023-03-23T09:03:40.929Z,13.49
2023-03-23T09:04:40.777Z,13.43
2023-03-23T09:05:40.808Z,13.55
2023-03-23T09:06:41.013Z,13.54
2023-03-23T09:07:40.691Z,13.63
2023-03-23T09:08:40.743Z,13.46
2023-03-23T09:11:24.403Z,13.62
2023-03-23T09:12:20.468Z,13.51
2023-03-23T09:13:15.311Z,13.38
2023-03-23T09:16:14.301Z,13.38
2023-03-23T09:16:54.186Z,13.41
2023-03-23T09:18:34.949Z,13.32
2023-03-23T09:18:47.708Z,13.44
2023-03-23T09:19:47.656Z,13.44
2023-03-23T09:20:48.643Z,13.44
2023-03-23T09:21:47.636Z,13.49
2023-03-23T09:22:47.799Z,13.59
2023-03-23T09:24:13.882Z,13.55
2023-03-23T09:24:47.600Z,13.44
2023-03-23T09:25:47.778Z,13.44
2023-03-23T09:26:56.237Z,13.55
2023-03-23T09:27:47.583Z,13.55
2023-03-23T09:28:47.584Z,13.59
2023-03-23T09:29:47.557Z,13.55
2023-03-23T09:30:53.306Z,13.56
2023-03-23T09:31:48.559Z,13.58
2023-03-23T09:32:47.587Z,13.63
2023-03-23T09:33:47.542Z,13.67
2023-03-23T09:34:47.545Z,13.69
2023-03-23T09:35:47.537Z,13.63
2023-03-23T09:36:47.473Z,13.62
2023-03-23T09:37:47.482Z,13.63
2023-03-23T09:38:47.486Z,13.58
2023-03-23T09:39:47.450Z,13.63
2023-03-23T09:40:48.438Z,13.54
2023-03-23T09:41:47.458Z,13.63
2023-03-23T09:42:47.449Z,13.69
2023-03-23T09:43:47.470Z,13.58
2023-03-23T09:44:47.493Z,13.71
2023-03-23T09:45:48.670Z,13.70
2023-03-23T09:46:48.623Z,13.71
2023-03-23T09:47:48.604Z,13.80
2023-03-23T09:48:48.655Z,13.88
2023-03-23T09:49:48.598Z,13.88
2023-03-23T09:50:48.590Z,14.04
2023-03-23T09:51:48.620Z,14.09
2023-03-23T09:52:48.518Z,14.06
2023-03-23T09:53:48.561Z,13.96
2023-03-23T09:54:48.534Z,13.88
2023-03-23T09:55:48.453Z,13.94
2023-03-23T09:56:48.489Z,13.91
2023-03-23T09:57:48.484Z,13.95
2023-03-23T09:58:48.448Z,13.98
2023-03-23T09:59:48.459Z,14.09
2023-03-23T10:00:48.526Z,14.12
2023-03-23T10:01:48.444Z,14.04
2023-03-23T10:02:49.016Z,14.14
2023-03-23T10:03:48.419Z,14.09
2023-03-23T10:04:48.424Z,14.28
2023-03-23T10:05:48.408Z,14.19
2023-03-23T10:06:48.426Z,14.27
2023-03-23T10:07:50.309Z,14.27
2023-03-23T10:08:56.811Z,14.31
2023-03-23T10:09:50.417Z,14.34
2023-03-23T10:10:48.329Z,14.52
2023-03-23T10:11:48.761Z,14.57
2023-03-23T10:12:49.277Z,14.72
2023-03-23T10:13:48.251Z,14.90
2023-03-23T10:14:48.264Z,15.01
2023-03-23T10:15:48.269Z,14.84
2023-03-23T10:16:48.287Z,14.81
2023-03-23T10:17:48.285Z,14.71
2023-03-23T10:18:48.256Z,14.86
2023-03-23T10:19:48.230Z,14.69
2023-03-23T10:20:48.229Z,14.64
2023-03-23T10:21:48.212Z,14.43
2023-03-23T10:22:48.288Z,14.39
2023-03-23T10:23:48.205Z,14.28
2023-03-23T10:24:48.192Z,14.32
2023-03-23T10:25:48.179Z,14.21
2023-03-23T10:26:48.140Z,14.29
2023-03-23T10:27:48.196Z,14.34
2023-03-23T10:28:48.128Z,14.32
2023-03-23T10:29:48.141Z,14.27
2023-03-23T10:30:48.144Z,14.37
2023-03-23T10:31:48.079Z,14.38
2023-03-23T10:32:48.090Z,14.29
2023-03-23T10:33:48.093Z,14.16
2023-03-23T10:34:48.084Z,14.16
2023-03-23T10:35:48.116Z,14.07
2023-03-23T10:36:48.057Z,14.09
2023-03-23T10:37:48.069Z,14.19
2023-03-23T10:38:48.069Z,14.06
2023-03-23T10:39:48.069Z,14.07
2023-03-23T10:40:48.123Z,14.09
2023-03-23T10:41:47.999Z,13.95
2023-03-23T10:42:48.004Z,13.99
2023-03-23T10:43:48.025Z,13.87
2023-03-23T10:44:48.217Z,13.83
2023-03-23T10:45:59.961Z,13.74
2023-03-23T10:46:50.042Z,13.65
2023-03-23T10:47:48.958Z,13.74
2023-03-23T10:48:48.048Z,13.71
2023-03-23T10:49:47.925Z,13.65
2023-03-23T10:50:47.976Z,13.67
2023-03-23T10:51:47.944Z,13.73
2023-03-23T10:52:47.927Z,13.67
2023-03-23T10:53:47.903Z,13.65
2023-03-23T10:54:47.918Z,13.63
2023-03-23T10:55:47.933Z,13.63
2023-03-23T10:56:58.838Z,13.54
2023-03-23T10:57:49.849Z,13.58
2023-03-23T10:58:47.829Z,13.61
2023-03-23T10:59:47.834Z,13.65
2023-03-23T11:00:47.821Z,13.71
2023-03-23T11:01:47.801Z,13.71
2023-03-23T11:02:47.797Z,13.77
2023-03-23T11:03:47.785Z,13.87
2023-03-23T11:04:47.794Z,13.71
2023-03-23T11:05:47.777Z,13.80
2023-03-23T11:06:47.750Z,13.74
2023-03-23T11:07:47.748Z,13.96
2023-03-23T11:08:47.746Z,13.98
2023-03-23T11:09:47.751Z,13.89
2023-03-23T11:10:47.748Z,14.04
2023-03-23T11:11:47.701Z,13.96
2023-03-23T11:12:47.723Z,13.88
2023-03-23T11:13:47.689Z,13.89
2023-03-23T11:14:47.724Z,13.88
2023-03-23T11:15:47.683Z,13.83
2023-03-23T11:16:47.654Z,13.89
2023-03-23T11:17:47.660Z,13.80
2023-03-23T11:18:47.654Z,13.99
2023-03-23T11:19:47.645Z,14.06
2023-03-23T11:20:47.659Z,14.07
2023-03-23T11:21:47.646Z,14.12
2023-03-23T11:22:47.618Z,14.01
2023-03-23T11:23:48.240Z,14.10
2023-03-23T11:24:47.630Z,14.07
2023-03-23T11:25:47.643Z,13.99
2023-03-23T11:26:56.913Z,13.96
2023-03-23T11:27:49.550Z,14.04
2023-03-23T11:28:47.518Z,14.12
2023-03-23T11:29:55.003Z,14.27
2023-03-23T11:30:48.517Z,14.24
2023-03-23T11:31:47.524Z,14.47
2023-03-23T11:32:47.488Z,14.65
2023-03-23T11:33:52.038Z,14.88
2023-03-23T11:34:48.483Z,14.93
2023-03-23T11:35:47.493Z,15.01
2023-03-23T11:36:47.449Z,15.20
2023-03-23T11:37:47.438Z,15.26
2023-03-23T11:38:47.445Z,15.28
2023-03-23T11:39:47.425Z,15.19
2023-03-23T11:40:47.413Z,14.95
2023-03-23T11:41:48.203Z,15.02
2023-03-23T11:42:47.464Z,14.84
2023-03-23T11:43:47.496Z,14.84
2023-03-23T11:44:47.406Z,15.06
2023-03-23T11:45:47.549Z,15.05
2023-03-23T11:46:48.460Z,15.13
2023-03-23T11:47:47.473Z,15.06
2023-03-23T11:48:47.497Z,14.81
2023-03-23T11:49:47.476Z,14.78
2023-03-23T11:50:47.438Z,14.75
2023-03-23T11:51:47.533Z,14.87
2023-03-23T11:52:56.164Z,14.94
2023-03-23T11:54:21.465Z,15.03
2023-03-23T11:54:47.307Z,15.11
2023-03-23T11:55:47.328Z,15.13
2023-03-23T11:56:47.257Z,15.01
2023-03-23T11:57:47.298Z,14.99
2023-03-23T11:58:47.348Z,14.74
2023-03-23T11:59:47.274Z,14.72
2023-03-23T12:00:48.581Z,14.56
2023-03-23T12:01:47.236Z,14.39
2023-03-23T12:02:47.244Z,14.52
2023-03-23T12:03:47.231Z,14.31
2023-03-23T12:04:47.189Z,14.32
2023-03-23T12:05:47.262Z,14.21
2023-03-23T12:06:47.228Z,14.17
2023-03-23T12:07:47.167Z,14.12
2023-03-23T12:08:47.272Z,13.99
2023-03-23T12:09:47.151Z,13.92
2023-03-23T12:11:48.167Z,13.84
2023-03-23T12:12:47.168Z,13.83
2023-03-23T12:13:52.969Z,13.80
2023-03-23T12:14:48.103Z,13.83
2023-03-23T12:15:47.208Z,13.81
2023-03-23T12:16:47.154Z,13.80
2023-03-23T12:17:47.136Z,13.73
2023-03-23T12:18:47.084Z,13.80
2023-03-23T12:19:47.090Z,13.76
2023-03-23T12:20:47.113Z,13.81
2023-03-23T12:21:47.042Z,13.83
2023-03-23T12:22:47.043Z,13.77
2023-03-23T12:23:47.032Z,13.69
2023-03-23T12:24:47.039Z,13.79
2023-03-23T12:25:51.503Z,13.79
2023-03-23T12:26:47.066Z,13.84
2023-03-23T12:27:47.064Z,13.77
2023-03-23T12:28:47.020Z,13.81
2023-03-23T12:29:47.061Z,13.77
2023-03-23T12:30:47.076Z,13.84
2023-03-23T12:31:47.017Z,13.88
2023-03-23T12:32:48.033Z,13.70
2023-03-23T12:33:48.870Z,13.79
2023-03-23T12:34:46.946Z,13.70
2023-03-23T12:35:47.079Z,13.65
2023-03-23T12:36:46.930Z,13.70
2023-03-23T12:37:47.002Z,13.74
2023-03-23T12:38:46.953Z,13.63
2023-03-23T12:39:46.918Z,13.65
2023-03-23T12:40:47.086Z,13.59
2023-03-23T12:41:47.002Z,13.62
2023-03-23T12:42:46.944Z,13.56
2023-03-23T12:43:46.936Z,13.55
2023-03-23T12:44:46.928Z,13.59
2023-03-23T12:45:46.969Z,13.59
2023-03-23T12:46:47.819Z,13.56
2023-03-23T12:47:46.884Z,13.63
2023-03-23T12:48:46.915Z,13.61
2023-03-23T12:49:46.843Z,13.62
2023-03-23T12:50:46.894Z,13.58
2023-03-23T12:51:46.754Z,13.76
2023-03-23T12:52:46.824Z,13.71
2023-03-23T12:53:46.756Z,13.76
2023-03-23T12:54:46.760Z,13.74
2023-03-23T12:55:46.737Z,13.79
2023-03-23T12:56:46.776Z,13.81
2023-03-23T12:57:46.676Z,13.84
2023-03-23T12:58:47.522Z,13.77
2023-03-23T12:59:46.716Z,13.98